Terminal Aerodrome Forecast
Issued by NWS

Home | Current Version | Previous Version | Text Only | Print | Product List | Glossary On
Versions: 1 2 3 4 5 6 7 8 9 10 11 12 13 14
000
FTUS43 KOAX 220500
TAFCDR
TAF
KCDR 220540Z 2206/2306 16007KT P6SM FEW200
     FM220900 17015KT P6SM SCT150
     FM221500 18016G23KT P6SM BKN100
     FM222200 17008KT P6SM VCTS BKN100CB=

USA.gov is the U.S. government's official web portal to all federal, state and local government web resources and services.